sensor_id;sensor_type;location;lat;lon;timestamp;P1;durP1;ratioP1;P2;durP2;ratioP2
20619;SDS011;10469;42.720;23.252;2024-01-30T00:01:51;17.80;;;6.55;;
20619;SDS011;10469;42.720;23.252;2024-01-30T00:04:17;13.32;;;6.82;;
20619;SDS011;10469;42.720;23.252;2024-01-30T00:06:43;9.15;;;5.82;;
20619;SDS011;10469;42.720;23.252;2024-01-30T00:09:09;7.75;;;5.65;;
20619;SDS011;10469;42.720;23.252;2024-01-30T00:11:36;8.60;;;5.72;;
20619;SDS011;10469;42.720;23.252;2024-01-30T00:14:02;7.97;;;5.50;;
20619;SDS011;10469;42.720;23.252;2024-01-30T00:16:28;7.85;;;5.45;;
20619;SDS011;10469;42.720;23.252;2024-01-30T00:18:54;7.80;;;5.28;;
20619;SDS011;10469;42.720;23.252;2024-01-30T00:21:20;9.45;;;5.55;;
20619;SDS011;10469;42.720;23.252;2024-01-30T00:23:45;9.18;;;5.63;;
20619;SDS011;10469;42.720;23.252;2024-01-30T00:26:11;7.03;;;5.35;;
20619;SDS011;10469;42.720;23.252;2024-01-30T00:28:38;6.80;;;5.25;;
20619;SDS011;10469;42.720;23.252;2024-01-30T00:31:03;9.30;;;5.75;;
20619;SDS011;10469;42.720;23.252;2024-01-30T00:33:29;7.65;;;5.57;;
20619;SDS011;10469;42.720;23.252;2024-01-30T00:35:55;9.55;;;6.18;;
20619;SDS011;10469;42.720;23.252;2024-01-30T00:38:21;9.55;;;5.72;;
20619;SDS011;10469;42.720;23.252;2024-01-30T00:40:47;9.23;;;6.43;;
20619;SDS011;10469;42.720;23.252;2024-01-30T00:43:13;9.55;;;6.35;;
20619;SDS011;10469;42.720;23.252;2024-01-30T00:45:38;9.38;;;6.18;;
20619;SDS011;10469;42.720;23.252;2024-01-30T00:48:04;9.32;;;6.10;;
20619;SDS011;10469;42.720;23.252;2024-01-30T00:50:30;11.70;;;7.03;;
20619;SDS011;10469;42.720;23.252;2024-01-30T00:52:55;11.68;;;6.97;;
20619;SDS011;10469;42.720;23.252;2024-01-30T00:55:21;11.48;;;6.82;;
20619;SDS011;10469;42.720;23.252;2024-01-30T00:57:46;9.20;;;5.70;;
20619;SDS011;10469;42.720;23.252;2024-01-30T01:00:12;11.45;;;6.10;;
20619;SDS011;10469;42.720;23.252;2024-01-30T01:02:41;7.43;;;5.50;;
20619;SDS011;10469;42.720;23.252;2024-01-30T01:05:07;8.15;;;5.57;;
20619;SDS011;10469;42.720;23.252;2024-01-30T01:07:33;8.57;;;5.90;;
20619;SDS011;10469;42.720;23.252;2024-01-30T01:09:58;7.75;;;5.15;;
20619;SDS011;10469;42.720;23.252;2024-01-30T01:12:24;9.10;;;6.45;;
20619;SDS011;10469;42.720;23.252;2024-01-30T01:14:49;8.65;;;5.68;;
20619;SDS011;10469;42.720;23.252;2024-01-30T01:17:15;6.90;;;5.18;;
20619;SDS011;10469;42.720;23.252;2024-01-30T01:19:41;10.82;;;5.45;;
20619;SDS011;10469;42.720;23.252;2024-01-30T01:22:10;5.78;;;4.80;;
20619;SDS011;10469;42.720;23.252;2024-01-30T01:24:35;6.05;;;4.65;;
20619;SDS011;10469;42.720;23.252;2024-01-30T01:27:01;6.53;;;4.57;;
20619;SDS011;10469;42.720;23.252;2024-01-30T01:29:27;6.50;;;4.28;;
20619;SDS011;10469;42.720;23.252;2024-01-30T01:31:55;7.28;;;4.85;;
20619;SDS011;10469;42.720;23.252;2024-01-30T01:34:21;6.47;;;4.78;;
20619;SDS011;10469;42.720;23.252;2024-01-30T01:36:47;5.70;;;4.30;;
20619;SDS011;10469;42.720;23.252;2024-01-30T01:39:12;6.85;;;4.75;;
20619;SDS011;10469;42.720;23.252;2024-01-30T01:41:38;6.93;;;4.72;;
20619;SDS011;10469;42.720;23.252;2024-01-30T01:44:03;7.15;;;5.03;;
20619;SDS011;10469;42.720;23.252;2024-01-30T01:46:29;5.90;;;4.88;;
20619;SDS011;10469;42.720;23.252;2024-01-30T01:48:57;8.25;;;5.53;;
20619;SDS011;10469;42.720;23.252;2024-01-30T01:51:24;10.15;;;6.13;;
20619;SDS011;10469;42.720;23.252;2024-01-30T01:53:53;7.57;;;5.70;;
20619;SDS011;10469;42.720;23.252;2024-01-30T01:56:20;10.45;;;6.43;;
20619;SDS011;10469;42.720;23.252;2024-01-30T01:58:46;8.88;;;6.00;;
20619;SDS011;10469;42.720;23.252;2024-01-30T02:01:14;9.63;;;6.50;;
20619;SDS011;10469;42.720;23.252;2024-01-30T02:03:44;10.07;;;6.03;;
20619;SDS011;10469;42.720;23.252;2024-01-30T02:06:10;6.32;;;4.95;;
20619;SDS011;10469;42.720;23.252;2024-01-30T02:08:37;6.97;;;5.40;;
20619;SDS011;10469;42.720;23.252;2024-01-30T02:11:04;8.77;;;6.13;;
20619;SDS011;10469;42.720;23.252;2024-01-30T02:13:30;8.55;;;5.80;;
20619;SDS011;10469;42.720;23.252;2024-01-30T02:15:55;7.47;;;5.53;;
20619;SDS011;10469;42.720;23.252;2024-01-30T02:18:22;7.95;;;5.82;;
20619;SDS011;10469;42.720;23.252;2024-01-30T04:48:59;6.30;;;4.28;;
20619;SDS011;10469;42.720;23.252;2024-01-30T04:51:24;6.60;;;4.35;;
20619;SDS011;10469;42.720;23.252;2024-01-30T04:53:50;7.85;;;5.07;;
20619;SDS011;10469;42.720;23.252;2024-01-30T04:56:15;6.78;;;5.05;;
20619;SDS011;10469;42.720;23.252;2024-01-30T04:58:41;6.75;;;4.53;;
20619;SDS011;10469;42.720;23.252;2024-01-30T05:01:06;7.85;;;5.20;;
20619;SDS011;10469;42.720;23.252;2024-01-30T05:03:39;9.07;;;5.00;;
20619;SDS011;10469;42.720;23.252;2024-01-30T05:06:08;10.48;;;5.80;;
20619;SDS011;10469;42.720;23.252;2024-01-30T05:08:34;8.68;;;5.57;;
20619;SDS011;10469;42.720;23.252;2024-01-30T05:11:02;11.05;;;6.25;;
20619;SDS011;10469;42.720;23.252;2024-01-30T05:13:30;9.80;;;6.05;;
20619;SDS011;10469;42.720;23.252;2024-01-30T05:15:56;9.13;;;5.25;;
20619;SDS011;10469;42.720;23.252;2024-01-30T05:18:21;14.48;;;5.38;;
20619;SDS011;10469;42.720;23.252;2024-01-30T05:20:47;13.05;;;5.40;;
20619;SDS011;10469;42.720;23.252;2024-01-30T05:23:12;7.35;;;4.82;;
20619;SDS011;10469;42.720;23.252;2024-01-30T05:25:38;9.80;;;5.22;;
20619;SDS011;10469;42.720;23.252;2024-01-30T05:28:03;8.57;;;5.65;;
20619;SDS011;10469;42.720;23.252;2024-01-30T05:30:29;9.88;;;4.85;;
20619;SDS011;10469;42.720;23.252;2024-01-30T05:32:55;7.20;;;4.72;;
20619;SDS011;10469;42.720;23.252;2024-01-30T05:35:20;7.43;;;4.78;;
20619;SDS011;10469;42.720;23.252;2024-01-30T05:37:47;7.63;;;5.35;;
20619;SDS011;10469;42.720;23.252;2024-01-30T05:40:14;5.07;;;4.35;;
20619;SDS011;10469;42.720;23.252;2024-01-30T05:42:39;9.20;;;5.60;;
20619;SDS011;10469;42.720;23.252;2024-01-30T05:45:05;7.82;;;4.00;;
20619;SDS011;10469;42.720;23.252;2024-01-30T05:47:31;5.63;;;4.10;;
20619;SDS011;10469;42.720;23.252;2024-01-30T05:49:57;5.20;;;4.20;;
20619;SDS011;10469;42.720;23.252;2024-01-30T05:52:22;7.28;;;4.50;;
20619;SDS011;10469;42.720;23.252;2024-01-30T05:54:48;7.60;;;4.28;;
20619;SDS011;10469;42.720;23.252;2024-01-30T05:57:13;8.27;;;4.93;;
20619;SDS011;10469;42.720;23.252;2024-01-30T05:59:39;5.95;;;4.43;;
20619;SDS011;10469;42.720;23.252;2024-01-30T06:02:04;12.88;;;4.85;;
20619;SDS011;10469;42.720;23.252;2024-01-30T06:04:30;6.55;;;4.75;;
20619;SDS011;10469;42.720;23.252;2024-01-30T06:06:55;9.23;;;4.57;;
20619;SDS011;10469;42.720;23.252;2024-01-30T06:09:21;6.93;;;4.45;;
20619;SDS011;10469;42.720;23.252;2024-01-30T06:11:47;5.75;;;4.30;;
20619;SDS011;10469;42.720;23.252;2024-01-30T06:14:12;5.40;;;3.85;;
20619;SDS011;10469;42.720;23.252;2024-01-30T06:16:38;4.78;;;3.65;;
20619;SDS011;10469;42.720;23.252;2024-01-30T06:19:03;4.97;;;3.85;;
20619;SDS011;10469;42.720;23.252;2024-01-30T06:21:29;4.47;;;3.65;;
20619;SDS011;10469;42.720;23.252;2024-01-30T06:23:55;4.13;;;3.00;;
20619;SDS011;10469;42.720;23.252;2024-01-30T06:26:21;5.90;;;3.83;;
20619;SDS011;10469;42.720;23.252;2024-01-30T06:28:46;5.68;;;3.28;;
20619;SDS011;10469;42.720;23.252;2024-01-30T06:31:12;9.75;;;3.63;;
20619;SDS011;10469;42.720;23.252;2024-01-30T06:33:37;6.35;;;4.15;;
20619;SDS011;10469;42.720;23.252;2024-01-30T06:36:03;7.57;;;3.63;;
20619;SDS011;10469;42.720;23.252;2024-01-30T06:38:29;10.30;;;3.30;;
20619;SDS011;10469;42.720;23.252;2024-01-30T06:40:54;11.00;;;3.95;;
20619;SDS011;10469;42.720;23.252;2024-01-30T06:43:20;5.72;;;3.35;;
20619;SDS011;10469;42.720;23.252;2024-01-30T06:45:47;7.53;;;3.17;;
20619;SDS011;10469;42.720;23.252;2024-01-30T06:48:12;5.20;;;3.35;;
20619;SDS011;10469;42.720;23.252;2024-01-30T06:50:38;4.18;;;3.10;;
20619;SDS011;10469;42.720;23.252;2024-01-30T06:53:03;5.35;;;3.92;;
20619;SDS011;10469;42.720;23.252;2024-01-30T06:55:29;6.53;;;3.92;;
20619;SDS011;10469;42.720;23.252;2024-01-30T06:57:54;7.65;;;4.97;;
20619;SDS011;10469;42.720;23.252;2024-01-30T07:00:20;8.05;;;4.63;;
20619;SDS011;10469;42.720;23.252;2024-01-30T07:02:47;9.02;;;4.75;;
20619;SDS011;10469;42.720;23.252;2024-01-30T07:05:13;8.57;;;4.63;;
20619;SDS011;10469;42.720;23.252;2024-01-30T07:07:42;8.48;;;4.60;;
20619;SDS011;10469;42.720;23.252;2024-01-30T07:10:08;7.15;;;5.03;;
20619;SDS011;10469;42.720;23.252;2024-01-30T07:12:33;7.65;;;4.70;;
20619;SDS011;10469;42.720;23.252;2024-01-30T07:14:59;7.32;;;5.05;;
20619;SDS011;10469;42.720;23.252;2024-01-30T07:17:25;7.65;;;4.22;;
20619;SDS011;10469;42.720;23.252;2024-01-30T07:19:50;6.43;;;4.60;;
20619;SDS011;10469;42.720;23.252;2024-01-30T07:22:15;6.28;;;4.15;;
20619;SDS011;10469;42.720;23.252;2024-01-30T07:24:44;6.47;;;3.95;;
20619;SDS011;10469;42.720;23.252;2024-01-30T07:27:12;5.47;;;3.90;;
20619;SDS011;10469;42.720;23.252;2024-01-30T07:29:38;8.85;;;4.07;;
20619;SDS011;10469;42.720;23.252;2024-01-30T07:32:03;5.90;;;3.88;;
20619;SDS011;10469;42.720;23.252;2024-01-30T07:34:29;5.95;;;3.53;;
20619;SDS011;10469;42.720;23.252;2024-01-30T07:36:54;10.45;;;4.30;;
20619;SDS011;10469;42.720;23.252;2024-01-30T07:39:20;5.43;;;4.15;;
20619;SDS011;10469;42.720;23.252;2024-01-30T07:41:46;8.15;;;4.07;;
20619;SDS011;10469;42.720;23.252;2024-01-30T07:44:11;6.90;;;4.03;;
20619;SDS011;10469;42.720;23.252;2024-01-30T07:46:37;4.97;;;3.75;;
20619;SDS011;10469;42.720;23.252;2024-01-30T07:49:03;5.40;;;3.80;;
20619;SDS011;10469;42.720;23.252;2024-01-30T07:51:28;6.63;;;3.63;;
20619;SDS011;10469;42.720;23.252;2024-01-30T07:53:56;5.75;;;3.70;;
20619;SDS011;10469;42.720;23.252;2024-01-30T07:56:22;5.32;;;3.63;;
20619;SDS011;10469;42.720;23.252;2024-01-30T07:58:47;4.70;;;3.63;;
20619;SDS011;10469;42.720;23.252;2024-01-30T08:01:14;6.43;;;3.35;;
20619;SDS011;10469;42.720;23.252;2024-01-30T08:03:40;4.63;;;2.88;;
20619;SDS011;10469;42.720;23.252;2024-01-30T08:06:06;3.90;;;3.50;;
20619;SDS011;10469;42.720;23.252;2024-01-30T08:08:32;3.97;;;3.35;;
20619;SDS011;10469;42.720;23.252;2024-01-30T08:10:58;5.80;;;4.30;;
20619;SDS011;10469;42.720;23.252;2024-01-30T08:13:23;4.82;;;3.90;;
20619;SDS011;10469;42.720;23.252;2024-01-30T08:15:49;8.73;;;5.22;;
20619;SDS011;10469;42.720;23.252;2024-01-30T08:18:15;5.78;;;4.00;;
20619;SDS011;10469;42.720;23.252;2024-01-30T08:20:40;4.72;;;3.30;;
20619;SDS011;10469;42.720;23.252;2024-01-30T08:23:06;4.53;;;3.40;;
20619;SDS011;10469;42.720;23.252;2024-01-30T08:25:31;4.57;;;3.70;;
20619;SDS011;10469;42.720;23.252;2024-01-30T08:27:57;5.15;;;3.90;;
20619;SDS011;10469;42.720;23.252;2024-01-30T08:30:23;10.02;;;3.53;;
20619;SDS011;10469;42.720;23.252;2024-01-30T08:32:48;6.35;;;4.10;;
20619;SDS011;10469;42.720;23.252;2024-01-30T08:35:14;7.03;;;4.90;;
20619;SDS011;10469;42.720;23.252;2024-01-30T08:37:41;7.70;;;4.32;;
20619;SDS011;10469;42.720;23.252;2024-01-30T08:40:07;9.80;;;4.05;;
20619;SDS011;10469;42.720;23.252;2024-01-30T08:42:36;5.15;;;3.15;;
20619;SDS011;10469;42.720;23.252;2024-01-30T08:45:01;4.68;;;3.50;;
20619;SDS011;10469;42.720;23.252;2024-01-30T08:47:27;3.53;;;3.10;;
20619;SDS011;10469;42.720;23.252;2024-01-30T08:49:52;6.47;;;3.65;;
20619;SDS011;10469;42.720;23.252;2024-01-30T08:52:18;8.82;;;4.68;;
20619;SDS011;10469;42.720;23.252;2024-01-30T08:54:43;3.78;;;3.28;;
20619;SDS011;10469;42.720;23.252;2024-01-30T08:57:09;4.63;;;3.28;;
20619;SDS011;10469;42.720;23.252;2024-01-30T08:59:34;8.77;;;3.83;;
20619;SDS011;10469;42.720;23.252;2024-01-30T09:02:00;7.35;;;3.97;;
20619;SDS011;10469;42.720;23.252;2024-01-30T09:04:26;5.32;;;3.83;;
20619;SDS011;10469;42.720;23.252;2024-01-30T09:06:51;6.85;;;4.55;;
20619;SDS011;10469;42.720;23.252;2024-01-30T09:09:17;8.52;;;4.15;;
20619;SDS011;10469;42.720;23.252;2024-01-30T09:11:43;5.35;;;3.22;;
20619;SDS011;10469;42.720;23.252;2024-01-30T09:14:08;7.05;;;4.35;;
20619;SDS011;10469;42.720;23.252;2024-01-30T09:16:34;5.88;;;4.03;;
20619;SDS011;10469;42.720;23.252;2024-01-30T09:18:59;5.22;;;3.90;;
20619;SDS011;10469;42.720;23.252;2024-01-30T09:21:25;6.65;;;4.30;;
20619;SDS011;10469;42.720;23.252;2024-01-30T09:23:52;6.75;;;4.28;;
20619;SDS011;10469;42.720;23.252;2024-01-30T09:26:19;4.80;;;3.35;;
20619;SDS011;10469;42.720;23.252;2024-01-30T09:28:45;6.07;;;4.03;;
20619;SDS011;10469;42.720;23.252;2024-01-30T09:31:11;4.60;;;3.60;;
20619;SDS011;10469;42.720;23.252;2024-01-30T09:33:37;6.85;;;3.88;;
20619;SDS011;10469;42.720;23.252;2024-01-30T09:36:04;4.13;;;3.35;;
20619;SDS011;10469;42.720;23.252;2024-01-30T09:38:30;3.22;;;2.90;;
20619;SDS011;10469;42.720;23.252;2024-01-30T09:40:56;3.05;;;2.70;;
20619;SDS011;10469;42.720;23.252;2024-01-30T09:43:26;3.75;;;3.00;;
20619;SDS011;10469;42.720;23.252;2024-01-30T09:45:57;3.95;;;2.80;;
20619;SDS011;10469;42.720;23.252;2024-01-30T09:48:25;3.55;;;3.08;;
20619;SDS011;10469;42.720;23.252;2024-01-30T09:50:52;5.85;;;2.95;;
20619;SDS011;10469;42.720;23.252;2024-01-30T09:53:18;4.65;;;2.97;;
20619;SDS011;10469;42.720;23.252;2024-01-30T09:55:44;6.80;;;3.35;;
20619;SDS011;10469;42.720;23.252;2024-01-30T09:58:11;3.95;;;3.15;;
20619;SDS011;10469;42.720;23.252;2024-01-30T10:00:37;2.55;;;2.35;;
20619;SDS011;10469;42.720;23.252;2024-01-30T10:03:03;5.28;;;2.78;;
20619;SDS011;10469;42.720;23.252;2024-01-30T10:05:29;3.08;;;2.70;;
20619;SDS011;10469;42.720;23.252;2024-01-30T10:07:58;2.85;;;2.55;;
20619;SDS011;10469;42.720;23.252;2024-01-30T10:10:24;3.55;;;2.60;;
20619;SDS011;10469;42.720;23.252;2024-01-30T10:12:50;3.42;;;2.90;;
20619;SDS011;10469;42.720;23.252;2024-01-30T10:15:15;3.10;;;2.63;;
20619;SDS011;10469;42.720;23.252;2024-01-30T10:17:44;3.08;;;2.60;;
20619;SDS011;10469;42.720;23.252;2024-01-30T10:20:10;2.92;;;2.28;;
20619;SDS011;10469;42.720;23.252;2024-01-30T10:22:35;3.95;;;2.75;;
20619;SDS011;10469;42.720;23.252;2024-01-30T10:25:01;3.42;;;2.53;;
20619;SDS011;10469;42.720;23.252;2024-01-30T10:27:26;3.28;;;2.72;;
20619;SDS011;10469;42.720;23.252;2024-01-30T10:29:52;6.80;;;3.85;;
20619;SDS011;10469;42.720;23.252;2024-01-30T10:32:19;4.85;;;2.90;;
20619;SDS011;10469;42.720;23.252;2024-01-30T10:34:46;6.40;;;3.00;;
20619;SDS011;10469;42.720;23.252;2024-01-30T10:37:12;4.45;;;2.63;;
20619;SDS011;10469;42.720;23.252;2024-01-30T10:39:40;3.45;;;2.63;;
20619;SDS011;10469;42.720;23.252;2024-01-30T10:42:14;4.78;;;3.35;;
20619;SDS011;10469;42.720;23.252;2024-01-30T10:44:46;8.10;;;3.97;;
20619;SDS011;10469;42.720;23.252;2024-01-30T10:47:27;3.47;;;3.17;;
20619;SDS011;10469;42.720;23.252;2024-01-30T19:49:39;25.40;;;15.38;;
20619;SDS011;10469;42.720;23.252;2024-01-30T19:52:08;35.97;;;20.20;;
20619;SDS011;10469;42.720;23.252;2024-01-30T19:54:34;34.40;;;20.75;;
20619;SDS011;10469;42.720;23.252;2024-01-30T19:57:01;33.75;;;18.70;;
20619;SDS011;10469;42.720;23.252;2024-01-30T19:59:27;32.88;;;18.90;;
20619;SDS011;10469;42.720;23.252;2024-01-30T20:01:59;28.98;;;16.90;;
20619;SDS011;10469;42.720;23.252;2024-01-30T20:04:25;25.90;;;14.73;;
20619;SDS011;10469;42.720;23.252;2024-01-30T20:06:53;28.23;;;17.13;;
20619;SDS011;10469;42.720;23.252;2024-01-30T20:09:20;44.05;;;19.60;;
20619;SDS011;10469;42.720;23.252;2024-01-30T20:11:48;38.03;;;19.60;;
20619;SDS011;10469;42.720;23.252;2024-01-30T20:14:13;41.58;;;21.35;;
20619;SDS011;10469;42.720;23.252;2024-01-30T20:16:39;46.30;;;20.20;;
20619;SDS011;10469;42.720;23.252;2024-01-30T20:19:09;48.15;;;20.98;;
20619;SDS011;10469;42.720;23.252;2024-01-30T20:21:35;36.80;;;20.85;;
20619;SDS011;10469;42.720;23.252;2024-01-30T20:24:05;38.45;;;21.15;;
20619;SDS011;10469;42.720;23.252;2024-01-30T20:26:31;38.97;;;21.48;;
20619;SDS011;10469;42.720;23.252;2024-01-30T20:28:57;37.78;;;21.33;;
20619;SDS011;10469;42.720;23.252;2024-01-30T20:31:24;34.60;;;20.88;;
20619;SDS011;10469;42.720;23.252;2024-01-30T20:33:50;35.08;;;19.13;;
20619;SDS011;10469;42.720;23.252;2024-01-30T20:36:16;34.75;;;20.15;;
20619;SDS011;10469;42.720;23.252;2024-01-30T20:38:43;32.22;;;18.67;;
20619;SDS011;10469;42.720;23.252;2024-01-30T20:41:10;25.73;;;14.65;;
20619;SDS011;10469;42.720;23.252;2024-01-30T20:43:39;25.33;;;15.20;;
20619;SDS011;10469;42.720;23.252;2024-01-30T20:46:08;34.45;;;19.83;;
20619;SDS011;10469;42.720;23.252;2024-01-30T20:48:35;38.00;;;20.58;;
20619;SDS011;10469;42.720;23.252;2024-01-30T20:51:01;32.67;;;19.52;;
20619;SDS011;10469;42.720;23.252;2024-01-30T20:53:27;32.92;;;18.52;;
20619;SDS011;10469;42.720;23.252;2024-01-30T20:55:52;32.42;;;19.15;;
20619;SDS011;10469;42.720;23.252;2024-01-30T20:58:18;27.23;;;16.70;;
20619;SDS011;10469;42.720;23.252;2024-01-30T21:00:43;30.08;;;17.45;;
20619;SDS011;10469;42.720;23.252;2024-01-30T21:03:09;28.42;;;16.77;;
20619;SDS011;10469;42.720;23.252;2024-01-30T21:05:36;28.60;;;16.83;;
20619;SDS011;10469;42.720;23.252;2024-01-30T21:08:02;35.72;;;19.33;;
20619;SDS011;10469;42.720;23.252;2024-01-30T21:10:28;37.83;;;20.20;;
20619;SDS011;10469;42.720;23.252;2024-01-30T21:12:53;30.13;;;16.95;;
20619;SDS011;10469;42.720;23.252;2024-01-30T21:15:19;35.67;;;17.48;;
20619;SDS011;10469;42.720;23.252;2024-01-30T21:17:45;33.47;;;18.38;;
20619;SDS011;10469;42.720;23.252;2024-01-30T21:20:11;30.58;;;18.20;;
20619;SDS011;10469;42.720;23.252;2024-01-30T21:22:39;31.88;;;18.60;;
20619;SDS011;10469;42.720;23.252;2024-01-30T21:25:05;27.88;;;16.25;;
20619;SDS011;10469;42.720;23.252;2024-01-30T21:27:31;36.35;;;18.23;;
20619;SDS011;10469;42.720;23.252;2024-01-30T21:29:58;32.38;;;19.15;;
20619;SDS011;10469;42.720;23.252;2024-01-30T21:32:24;33.38;;;18.60;;
20619;SDS011;10469;42.720;23.252;2024-01-30T21:34:49;40.05;;;22.20;;
20619;SDS011;10469;42.720;23.252;2024-01-30T21:37:15;35.92;;;21.73;;
20619;SDS011;10469;42.720;23.252;2024-01-30T21:39:41;51.58;;;27.48;;
20619;SDS011;10469;42.720;23.252;2024-01-30T21:42:06;47.40;;;25.83;;
20619;SDS011;10469;42.720;23.252;2024-01-30T21:44:32;39.95;;;23.75;;
20619;SDS011;10469;42.720;23.252;2024-01-30T21:46:58;34.75;;;19.33;;
20619;SDS011;10469;42.720;23.252;2024-01-30T21:49:24;33.58;;;19.92;;
20619;SDS011;10469;42.720;23.252;2024-01-30T21:51:50;35.42;;;19.45;;
20619;SDS011;10469;42.720;23.252;2024-01-30T21:54:16;35.03;;;20.48;;
20619;SDS011;10469;42.720;23.252;2024-01-30T21:56:42;39.75;;;19.17;;
20619;SDS011;10469;42.720;23.252;2024-01-30T21:59:07;44.35;;;21.50;;
20619;SDS011;10469;42.720;23.252;2024-01-30T22:01:33;39.38;;;19.05;;
20619;SDS011;10469;42.720;23.252;2024-01-30T22:03:59;31.92;;;18.98;;
20619;SDS011;10469;42.720;23.252;2024-01-30T22:06:25;40.20;;;22.33;;
20619;SDS011;10469;42.720;23.252;2024-01-30T22:08:53;35.63;;;19.80;;
20619;SDS011;10469;42.720;23.252;2024-01-30T22:11:19;38.85;;;21.30;;
20619;SDS011;10469;42.720;23.252;2024-01-30T22:13:45;38.80;;;21.85;;
20619;SDS011;10469;42.720;23.252;2024-01-30T22:16:12;38.47;;;22.30;;
20619;SDS011;10469;42.720;23.252;2024-01-30T22:18:42;43.35;;;22.67;;
20619;SDS011;10469;42.720;23.252;2024-01-30T22:21:07;38.97;;;23.10;;
20619;SDS011;10469;42.720;23.252;2024-01-30T22:23:34;44.40;;;22.63;;
20619;SDS011;10469;42.720;23.252;2024-01-30T22:26:01;47.67;;;24.48;;
20619;SDS011;10469;42.720;23.252;2024-01-30T22:28:26;43.25;;;23.70;;
20619;SDS011;10469;42.720;23.252;2024-01-30T22:30:52;40.05;;;23.27;;
20619;SDS011;10469;42.720;23.252;2024-01-30T22:33:17;40.65;;;22.27;;
20619;SDS011;10469;42.720;23.252;2024-01-30T22:35:43;41.35;;;22.67;;
20619;SDS011;10469;42.720;23.252;2024-01-30T22:38:08;49.35;;;24.23;;
20619;SDS011;10469;42.720;23.252;2024-01-30T22:40:35;42.15;;;23.38;;
20619;SDS011;10469;42.720;23.252;2024-01-30T22:43:01;44.28;;;23.98;;
20619;SDS011;10469;42.720;23.252;2024-01-30T22:45:27;43.83;;;24.63;;
20619;SDS011;10469;42.720;23.252;2024-01-30T22:47:52;47.80;;;23.38;;
20619;SDS011;10469;42.720;23.252;2024-01-30T22:50:19;46.70;;;23.73;;
20619;SDS011;10469;42.720;23.252;2024-01-30T22:52:44;49.28;;;24.35;;
20619;SDS011;10469;42.720;23.252;2024-01-30T22:55:11;56.30;;;27.52;;
20619;SDS011;10469;42.720;23.252;2024-01-30T22:57:37;56.55;;;29.33;;
20619;SDS011;10469;42.720;23.252;2024-01-30T23:00:03;59.55;;;31.73;;
20619;SDS011;10469;42.720;23.252;2024-01-30T23:02:37;59.50;;;32.45;;
20619;SDS011;10469;42.720;23.252;2024-01-30T23:05:02;59.67;;;32.63;;
20619;SDS011;10469;42.720;23.252;2024-01-30T23:07:29;57.08;;;32.10;;
20619;SDS011;10469;42.720;23.252;2024-01-30T23:09:54;60.95;;;32.13;;
20619;SDS011;10469;42.720;23.252;2024-01-30T23:12:20;50.97;;;29.23;;
20619;SDS011;10469;42.720;23.252;2024-01-30T23:14:46;48.03;;;27.95;;
20619;SDS011;10469;42.720;23.252;2024-01-30T23:17:12;48.15;;;27.52;;
20619;SDS011;10469;42.720;23.252;2024-01-30T23:19:37;56.03;;;28.70;;
20619;SDS011;10469;42.720;23.252;2024-01-30T23:22:03;49.83;;;28.42;;
20619;SDS011;10469;42.720;23.252;2024-01-30T23:24:29;56.35;;;29.42;;
20619;SDS011;10469;42.720;23.252;2024-01-30T23:26:54;56.58;;;30.67;;
20619;SDS011;10469;42.720;23.252;2024-01-30T23:29:20;59.50;;;31.65;;
20619;SDS011;10469;42.720;23.252;2024-01-30T23:31:45;57.85;;;30.55;;
20619;SDS011;10469;42.720;23.252;2024-01-30T23:34:12;57.63;;;31.88;;
20619;SDS011;10469;42.720;23.252;2024-01-30T23:36:43;51.10;;;28.17;;
20619;SDS011;10469;42.720;23.252;2024-01-30T23:39:10;56.22;;;31.35;;
20619;SDS011;10469;42.720;23.252;2024-01-30T23:41:37;55.40;;;30.33;;
20619;SDS011;10469;42.720;23.252;2024-01-30T23:44:04;51.85;;;29.00;;
20619;SDS011;10469;42.720;23.252;2024-01-30T23:46:31;53.85;;;28.63;;
20619;SDS011;10469;42.720;23.252;2024-01-30T23:48:57;51.90;;;27.67;;
20619;SDS011;10469;42.720;23.252;2024-01-30T23:51:23;55.53;;;30.15;;
20619;SDS011;10469;42.720;23.252;2024-01-30T23:53:48;50.80;;;29.42;;
20619;SDS011;10469;42.720;23.252;2024-01-30T23:56:14;47.72;;;27.35;;
20619;SDS011;10469;42.720;23.252;2024-01-30T23:58:40;51.58;;;29.50;;
